Kelly, Wyoming
Current Conditions -  °F | °C
As of 2:52 PM on Friday 31 Oct 2014 (Local Time) from KJAC Reporting Station
Clear Clear  
Wind Chill: 64°   Ceiling: Unl
Heat Index: 64°   Visibility: 10mi
Dew Point: 27°   Wind: 9mph
Humidity: 24%   Direction: 180°S
Pressure: 29.98"   Gusts: NA
Location:  43.62°N, 110.62°W
Report Text: KJAC 312052Z 18008KT 10SM CLR 18/M03 A2998
Loading
Personal Weather Stations






























Interactive Weather Map
Tropical Storm Tracking
New forecast layout! Learn more

10-Day Weather Forecast

Advertisements
Track Severe Weather on mobile